White Point — IBAE — position and weather

sailwx.info

Track history (hours):
 
Tides and Currents Weather Stations Pressure Air Temp Water Temp Dewpoint Dewpoint Depression Visibility Wind Speed Wind Dir Waves Ship Positions

White Point

Last reported at 2016-May-28 04:10 UTC. Time now 2016-May-28 06:01 UTC.
Position N 41°31' E 016°59'.

Length 183 m; draft 1.1 m.

Type: Ship (hazmat cat D). MMSI: 247087400.

Date/timePositionNaut miles runAvg speedWind from/ knotsBaromVisibWave heightAir tempDewpointWater temp
2016-May-28 04:10N 41°31' E 016°59'914.2
2016-May-28 03:33N 41°37' E 016°50'1413.8
2016-May-28 02:33N 41°46' E 016°36'1414.4
2016-May-28 01:33N 41°56' E 016°22'1514.7
2016-May-28 00:34N 42°03' E 016°05'1515.0
2016-May-27 23:33N 42°09' E 015°46'1514.5
2016-May-27 22:33N 42°13' E 015°28'1514.6
2016-May-27 21:33N 42°16' E 015°08'1515.1
2016-May-27 20:33N 42°19' E 014°48'1514.7
2016-May-27 19:32N 42°21' E 014°28'2 0.2
2016-May-27 08:19N 42°21' E 014°25'0 0.0
2016-May-27 07:31N 42°21' E 014°25'0 0.0
2016-May-27 06:31N 42°21' E 014°25'17 5.4
2016-May-27 03:25N 42°38' E 014°30'1112.6
2016-May-27 02:33N 42°49' E 014°29'1313.3
2016-May-27 01:33N 43°01' E 014°23'4013.4
2016-May-26 22:33N 43°39' E 014°03'1613.3
2016-May-26 21:23N 43°52' E 013°53'1113.5
2016-May-26 20:32N 43°59' E 013°39'1313.4
2016-May-26 19:33N 44°06' E 013°24'1313.1
2016-May-26 18:34N 44°15' E 013°11'1313.3
2016-May-26 17:33N 44°28' E 013°05'1313.3
2016-May-26 16:34N 44°40' E 012°59'1313.5
2016-May-26 15:34N 44°52' E 012°50'1313.5
2016-May-26 14:34N 45°05' E 012°43'1313.0
2016-May-26 13:34N 45°13' E 012°30'1211.5
2016-May-26 12:33N 45°21' E 012°17'7 6.7
2016-May-26 11:33N 45°27' E 012°16'0 0.1
2016-May-26 10:31N 45°27' E 012°16'0 0.0
2016-May-26 09:31N 45°27' E 012°16'0 0.0
2016-May-26 08:28N 45°27' E 012°16'0 0.0
2016-May-26 07:31N 45°27' E 012°16'0 0.0
2016-May-26 06:28N 45°27' E 012°16'0 0.0
2016-May-26 05:31N 45°27' E 012°16'0 0.0
2016-May-26 04:31N 45°27' E 012°16'0 0.0
2016-May-26 03:31N 45°27' E 012°16'0 0.0
2016-May-26 02:31N 45°27' E 012°16'0 0.0
2016-May-26 01:31N 45°27' E 012°16'0 0.0
2016-May-26 00:31N 45°27' E 012°16'0 0.0
2016-May-25 23:22N 45°27' E 012°16'0 0.0
2016-May-25 22:31N 45°27' E 012°16'0 0.0
2016-May-25 21:31N 45°27' E 012°16'0 0.0
2016-May-25 20:31N 45°27' E 012°16'0 0.0
2016-May-25 19:22N 45°27' E 012°16'0 0.0
2016-May-25 18:31N 45°27' E 012°16'0 0.0
2016-May-25 17:32N 45°27' E 012°16'3 3.2
2016-May-25 16:34N 45°24' E 012°16'7 7.5
2016-May-25 15:33N 45°20' E 012°24'0 0.4
2016-May-25 14:33N 45°20' E 012°25'0 0.0
2016-May-25 13:33N 45°20' E 012°25'0 0.0
2016-May-25 12:33N 45°20' E 012°25'0 0.0
2016-May-25 11:33N 45°20' E 012°25'0 0.0
2016-May-25 10:33N 45°20' E 012°25'0 0.0
2016-May-25 09:33N 45°20' E 012°25'0 0.0
2016-May-25 08:33N 45°20' E 012°25'0 0.0
2016-May-25 07:33N 45°20' E 012°25'0 0.0
2016-May-25 06:33N 45°20' E 012°25'0 0.0
2016-May-25 05:33N 45°20' E 012°25'0 0.1
2016-May-25 04:33N 45°20' E 012°25'1110.8
2016-May-25 03:33N 45°14' E 012°37'1312.8
2016-May-25 02:33N 45°05' E 012°50'1312.3
2016-May-25 01:31N 44°52' E 012°53'1313.3
2016-May-25 00:33N 44°41' E 012°43'1313.4
2016-May-24 23:33N 44°30' E 012°32'1111.2
2016-May-24 22:33N 44°30' E 012°17'7 0.2
2016-May-23 10:32N 44°30' E 012°27'433 9.5
2016-May-21 13:05N 37°50' E 016°05'713.9
2016-May-21 12:33N 37°50' E 015°56'1413.7
2016-May-21 11:33N 37°53' E 015°39'1614.5
2016-May-21 10:29N 38°08' E 015°34'1212.6
2016-May-21 09:34N 38°18' E 015°40'1413.8
2016-May-21 08:33N 38°16' E 015°22'5 0.2
2016-May-20 08:29N 38°14' E 015°17'3 3.4
2016-May-20 07:33N 38°16' E 015°20'1110.6
2016-May-20 06:34N 38°20' E 015°32'7 7.3
2016-May-20 05:33N 38°15' E 015°39'1212.3
2016-May-20 04:33N 38°03' E 015°36'1212.0
2016-May-20 03:33N 37°53' E 015°44'  
Track history (hours):
 
Tides and Currents Weather Stations Pressure Air Temp Water Temp Dewpoint Dewpoint Depression Visibility Wind Speed Wind Dir Waves Ship Positions

White Point

Last reported at 2016-May-28 04:10 UTC. Time now 2016-May-28 06:01 UTC.
Position N 41°31' E 016°59'.

Length 183 m; draft 1.1 m.

Type: Ship (hazmat cat D). MMSI: 247087400.

Date/timePositionNaut miles runAvg speedWind from/ knotsBaromVisibWave heightAir tempDewpointWater temp
2016-May-28 04:10N 41°31' E 016°59'914.2
2016-May-28 03:33N 41°37' E 016°50'1413.8
2016-May-28 02:33N 41°46' E 016°36'1414.4
2016-May-28 01:33N 41°56' E 016°22'1514.7
2016-May-28 00:34N 42°03' E 016°05'1515.0
2016-May-27 23:33N 42°09' E 015°46'1514.5
2016-May-27 22:33N 42°13' E 015°28'1514.6
2016-May-27 21:33N 42°16' E 015°08'1515.1
2016-May-27 20:33N 42°19' E 014°48'1514.7
2016-May-27 19:32N 42°21' E 014°28'2 0.2
2016-May-27 08:19N 42°21' E 014°25'0 0.0
2016-May-27 07:31N 42°21' E 014°25'0 0.0
2016-May-27 06:31N 42°21' E 014°25'17 5.4
2016-May-27 03:25N 42°38' E 014°30'1112.6
2016-May-27 02:33N 42°49' E 014°29'1313.3
2016-May-27 01:33N 43°01' E 014°23'4013.4
2016-May-26 22:33N 43°39' E 014°03'1613.3
2016-May-26 21:23N 43°52' E 013°53'1113.5
2016-May-26 20:32N 43°59' E 013°39'1313.4
2016-May-26 19:33N 44°06' E 013°24'1313.1
2016-May-26 18:34N 44°15' E 013°11'1313.3
2016-May-26 17:33N 44°28' E 013°05'1313.3
2016-May-26 16:34N 44°40' E 012°59'1313.5
2016-May-26 15:34N 44°52' E 012°50'1313.5
2016-May-26 14:34N 45°05' E 012°43'1313.0
2016-May-26 13:34N 45°13' E 012°30'1211.5
2016-May-26 12:33N 45°21' E 012°17'7 6.7
2016-May-26 11:33N 45°27' E 012°16'0 0.1
2016-May-26 10:31N 45°27' E 012°16'0 0.0
2016-May-26 09:31N 45°27' E 012°16'0 0.0
2016-May-26 08:28N 45°27' E 012°16'0 0.0
2016-May-26 07:31N 45°27' E 012°16'0 0.0
2016-May-26 06:28N 45°27' E 012°16'0 0.0
2016-May-26 05:31N 45°27' E 012°16'0 0.0
2016-May-26 04:31N 45°27' E 012°16'0 0.0
2016-May-26 03:31N 45°27' E 012°16'0 0.0
2016-May-26 02:31N 45°27' E 012°16'0 0.0
2016-May-26 01:31N 45°27' E 012°16'0 0.0
2016-May-26 00:31N 45°27' E 012°16'0 0.0
2016-May-25 23:22N 45°27' E 012°16'0 0.0
2016-May-25 22:31N 45°27' E 012°16'0 0.0
2016-May-25 21:31N 45°27' E 012°16'0 0.0
2016-May-25 20:31N 45°27' E 012°16'0 0.0
2016-May-25 19:22N 45°27' E 012°16'0 0.0
2016-May-25 18:31N 45°27' E 012°16'0 0.0
2016-May-25 17:32N 45°27' E 012°16'3 3.2
2016-May-25 16:34N 45°24' E 012°16'7 7.5
2016-May-25 15:33N 45°20' E 012°24'0 0.4
2016-May-25 14:33N 45°20' E 012°25'0 0.0
2016-May-25 13:33N 45°20' E 012°25'0 0.0
2016-May-25 12:33N 45°20' E 012°25'0 0.0
2016-May-25 11:33N 45°20' E 012°25'0 0.0
2016-May-25 10:33N 45°20' E 012°25'0 0.0
2016-May-25 09:33N 45°20' E 012°25'0 0.0
2016-May-25 08:33N 45°20' E 012°25'0 0.0
2016-May-25 07:33N 45°20' E 012°25'0 0.0
2016-May-25 06:33N 45°20' E 012°25'0 0.0
2016-May-25 05:33N 45°20' E 012°25'0 0.1
2016-May-25 04:33N 45°20' E 012°25'1110.8
2016-May-25 03:33N 45°14' E 012°37'1312.8
2016-May-25 02:33N 45°05' E 012°50'1312.3
2016-May-25 01:31N 44°52' E 012°53'1313.3
2016-May-25 00:33N 44°41' E 012°43'1313.4
2016-May-24 23:33N 44°30' E 012°32'1111.2
2016-May-24 22:33N 44°30' E 012°17'7 0.2
2016-May-23 10:32N 44°30' E 012°27'433 9.5
2016-May-21 13:05N 37°50' E 016°05'713.9
2016-May-21 12:33N 37°50' E 015°56'1413.7
2016-May-21 11:33N 37°53' E 015°39'1614.5
2016-May-21 10:29N 38°08' E 015°34'1212.6
2016-May-21 09:34N 38°18' E 015°40'1413.8
2016-May-21 08:33N 38°16' E 015°22'5 0.2
2016-May-20 08:29N 38°14' E 015°17'3 3.4
2016-May-20 07:33N 38°16' E 015°20'1110.6
2016-May-20 06:34N 38°20' E 015°32'7 7.3
2016-May-20 05:33N 38°15' E 015°39'1212.3
2016-May-20 04:33N 38°03' E 015°36'1212.0
2016-May-20 03:33N 37°53' E 015°44'  

Dump ship's entire track history